メインページ
METAR-TAF:

METAR-TAF

空港 :

Saginaw County H.W. Browne Airport

サギノー, ミシガン州, アメリカ合衆国

緯度: 43-26-00N, 経度: 083-51-45W, 海抜: 183m

現時点の気象観測

当レポートは15分前の20:40(UTC)に作成
南/南西の風 8kt
気温 28°C
湿度 48%
気圧 1017 hPa
視程: 16.1km
高度4400ftの雲は散在している
高度5000ftの雲は散在している

METAR: KHYX 192040Z AUTO 20008KT 10SM SCT044 SCT050 28/16 A3002 RMK AO2

時間: 16:55 (20:55 UTC)


TAF: 見つかりません

4,000以上の空港の気象観測と天気予報(METAR報とTAF報)

利用可能な観測所は地図上に黄色い丸と赤い丸で示す。

丸の上にカーソルを重ねると観測所名を参照できる。

次にクリックすると気象観測と天気予報を参照できる。

マップの切り替え:黒色「×」印の緑ボタンをクリックして拡大、「-」印の緑ボタンをクリックして縮小、緑色の三角印をクリックして隣りの地図に切り替え


METAR-TAF: